sensor_id;sensor_type;location;lat;lon;timestamp;P1;durP1;ratioP1;P2;durP2;ratioP2
5591;SDS011;2818;49.790;9.958;2022-11-12T00:01:03;15.33;;;10.63;;
5591;SDS011;2818;49.790;9.958;2022-11-12T00:03:30;15.37;;;12.27;;
5591;SDS011;2818;49.790;9.958;2022-11-12T00:05:57;14.10;;;11.40;;
5591;SDS011;2818;49.790;9.958;2022-11-12T00:08:24;13.77;;;10.77;;
5591;SDS011;2818;49.790;9.958;2022-11-12T00:10:51;13.13;;;11.10;;
5591;SDS011;2818;49.790;9.958;2022-11-12T00:13:18;17.00;;;12.23;;
5591;SDS011;2818;49.790;9.958;2022-11-12T00:15:45;12.37;;;10.67;;
5591;SDS011;2818;49.790;9.958;2022-11-12T00:18:13;13.67;;;11.73;;
5591;SDS011;2818;49.790;9.958;2022-11-12T00:20:40;16.70;;;11.90;;
5591;SDS011;2818;49.790;9.958;2022-11-12T00:23:07;16.43;;;11.80;;
5591;SDS011;2818;49.790;9.958;2022-11-12T00:25:33;14.37;;;11.77;;
5591;SDS011;2818;49.790;9.958;2022-11-12T00:28:04;21.00;;;12.43;;
5591;SDS011;2818;49.790;9.958;2022-11-12T00:30:35;17.73;;;12.17;;
5591;SDS011;2818;49.790;9.958;2022-11-12T00:33:04;15.77;;;12.13;;
5591;SDS011;2818;49.790;9.958;2022-11-12T00:35:31;17.80;;;11.87;;
5591;SDS011;2818;49.790;9.958;2022-11-12T00:38:00;18.23;;;12.50;;
5591;SDS011;2818;49.790;9.958;2022-11-12T00:40:27;21.93;;;12.17;;
5591;SDS011;2818;49.790;9.958;2022-11-12T00:42:55;14.87;;;11.73;;
5591;SDS011;2818;49.790;9.958;2022-11-12T00:45:22;18.00;;;12.30;;
5591;SDS011;2818;49.790;9.958;2022-11-12T00:47:49;31.80;;;13.20;;
5591;SDS011;2818;49.790;9.958;2022-11-12T00:50:19;34.13;;;13.10;;
5591;SDS011;2818;49.790;9.958;2022-11-12T00:52:46;24.53;;;12.30;;
5591;SDS011;2818;49.790;9.958;2022-11-12T00:55:13;30.67;;;12.43;;
5591;SDS011;2818;49.790;9.958;2022-11-12T00:57:40;21.47;;;11.77;;
5591;SDS011;2818;49.790;9.958;2022-11-12T01:00:07;18.60;;;10.80;;
5591;SDS011;2818;49.790;9.958;2022-11-12T01:02:40;21.43;;;10.97;;
5591;SDS011;2818;49.790;9.958;2022-11-12T01:05:14;23.03;;;11.03;;
5591;SDS011;2818;49.790;9.958;2022-11-12T01:07:42;15.67;;;11.00;;
5591;SDS011;2818;49.790;9.958;2022-11-12T01:10:09;21.80;;;11.83;;
5591;SDS011;2818;49.790;9.958;2022-11-12T01:12:36;24.27;;;12.40;;
5591;SDS011;2818;49.790;9.958;2022-11-12T01:15:04;18.77;;;11.90;;
5591;SDS011;2818;49.790;9.958;2022-11-12T01:17:31;28.73;;;11.00;;
5591;SDS011;2818;49.790;9.958;2022-11-12T01:19:58;19.83;;;11.70;;
5591;SDS011;2818;49.790;9.958;2022-11-12T01:22:25;26.90;;;12.23;;
5591;SDS011;2818;49.790;9.958;2022-11-12T01:24:52;15.87;;;11.00;;
5591;SDS011;2818;49.790;9.958;2022-11-12T01:27:19;37.80;;;11.83;;
5591;SDS011;2818;49.790;9.958;2022-11-12T01:29:46;78.80;;;33.57;;
5591;SDS011;2818;49.790;9.958;2022-11-12T01:32:13;90.40;;;37.57;;
5591;SDS011;2818;49.790;9.958;2022-11-12T01:34:40;46.27;;;11.50;;
5591;SDS011;2818;49.790;9.958;2022-11-12T01:37:06;30.97;;;10.80;;
5591;SDS011;2818;49.790;9.958;2022-11-12T01:39:33;20.03;;;10.60;;
5591;SDS011;2818;49.790;9.958;2022-11-12T01:42:00;24.03;;;11.60;;
5591;SDS011;2818;49.790;9.958;2022-11-12T01:44:29;33.13;;;11.30;;
5591;SDS011;2818;49.790;9.958;2022-11-12T01:49:46;32.23;;;11.90;;
5591;SDS011;2818;49.790;9.958;2022-11-12T01:52:22;22.63;;;11.70;;
5591;SDS011;2818;49.790;9.958;2022-11-12T01:54:57;24.23;;;11.83;;
5591;SDS011;2818;49.790;9.958;2022-11-12T01:57:31;17.23;;;11.80;;
5591;SDS011;2818;49.790;9.958;2022-11-12T02:00:05;23.33;;;11.97;;
5591;SDS011;2818;49.790;9.958;2022-11-12T02:02:37;20.77;;;11.70;;
5591;SDS011;2818;49.790;9.958;2022-11-12T02:05:06;20.00;;;11.43;;
5591;SDS011;2818;49.790;9.958;2022-11-12T02:07:37;19.37;;;11.20;;
5591;SDS011;2818;49.790;9.958;2022-11-12T02:10:06;18.00;;;12.57;;
5591;SDS011;2818;49.790;9.958;2022-11-12T02:12:35;22.47;;;12.10;;
5591;SDS011;2818;49.790;9.958;2022-11-12T02:15:21;22.57;;;10.63;;
5591;SDS011;2818;49.790;9.958;2022-11-12T02:17:48;19.80;;;11.73;;
5591;SDS011;2818;49.790;9.958;2022-11-12T02:20:15;24.70;;;10.50;;
5591;SDS011;2818;49.790;9.958;2022-11-12T02:22:43;18.73;;;11.77;;
5591;SDS011;2818;49.790;9.958;2022-11-12T02:25:10;35.40;;;11.00;;
5591;SDS011;2818;49.790;9.958;2022-11-12T02:27:41;12.10;;;9.97;;
5591;SDS011;2818;49.790;9.958;2022-11-12T02:30:09;16.80;;;10.77;;
5591;SDS011;2818;49.790;9.958;2022-11-12T02:32:37;16.23;;;10.80;;
5591;SDS011;2818;49.790;9.958;2022-11-12T02:35:04;31.27;;;10.17;;
5591;SDS011;2818;49.790;9.958;2022-11-12T02:37:31;24.63;;;9.83;;
5591;SDS011;2818;49.790;9.958;2022-11-12T02:39:58;41.27;;;10.60;;
5591;SDS011;2818;49.790;9.958;2022-11-12T02:42:25;15.40;;;9.90;;
5591;SDS011;2818;49.790;9.958;2022-11-12T02:44:52;23.73;;;10.10;;
5591;SDS011;2818;49.790;9.958;2022-11-12T02:47:19;19.13;;;10.50;;
5591;SDS011;2818;49.790;9.958;2022-11-12T02:49:45;18.43;;;10.00;;
5591;SDS011;2818;49.790;9.958;2022-11-12T02:52:12;20.83;;;9.67;;
5591;SDS011;2818;49.790;9.958;2022-11-12T02:54:39;17.80;;;9.87;;
5591;SDS011;2818;49.790;9.958;2022-11-12T02:57:06;19.70;;;9.23;;
5591;SDS011;2818;49.790;9.958;2022-11-12T02:59:33;16.13;;;10.80;;
5591;SDS011;2818;49.790;9.958;2022-11-12T03:02:00;26.97;;;10.90;;
5591;SDS011;2818;49.790;9.958;2022-11-12T03:04:26;30.57;;;10.50;;
5591;SDS011;2818;49.790;9.958;2022-11-12T03:06:53;38.33;;;10.80;;
5591;SDS011;2818;49.790;9.958;2022-11-12T03:09:20;22.80;;;10.87;;
5591;SDS011;2818;49.790;9.958;2022-11-12T03:11:47;12.10;;;9.80;;
5591;SDS011;2818;49.790;9.958;2022-11-12T03:14:14;35.30;;;9.30;;
5591;SDS011;2818;49.790;9.958;2022-11-12T03:16:41;26.47;;;9.00;;
5591;SDS011;2818;49.790;9.958;2022-11-12T03:19:08;16.20;;;9.10;;
5591;SDS011;2818;49.790;9.958;2022-11-12T03:21:34;18.00;;;8.70;;
5591;SDS011;2818;49.790;9.958;2022-11-12T03:24:01;16.40;;;8.80;;
5591;SDS011;2818;49.790;9.958;2022-11-12T03:26:28;14.53;;;9.00;;
5591;SDS011;2818;49.790;9.958;2022-11-12T03:29:01;15.23;;;8.40;;
5591;SDS011;2818;49.790;9.958;2022-11-12T03:31:27;10.20;;;9.07;;
5591;SDS011;2818;49.790;9.958;2022-11-12T03:33:54;9.40;;;8.60;;
5591;SDS011;2818;49.790;9.958;2022-11-12T03:36:21;19.53;;;9.20;;
5591;SDS011;2818;49.790;9.958;2022-11-12T03:38:48;12.37;;;8.50;;
5591;SDS011;2818;49.790;9.958;2022-11-12T03:41:15;11.03;;;8.50;;
5591;SDS011;2818;49.790;9.958;2022-11-12T03:43:42;16.97;;;8.50;;
5591;SDS011;2818;49.790;9.958;2022-11-12T03:46:09;10.67;;;7.90;;
5591;SDS011;2818;49.790;9.958;2022-11-12T03:48:35;17.03;;;8.20;;
5591;SDS011;2818;49.790;9.958;2022-11-12T03:51:03;17.30;;;8.10;;
5591;SDS011;2818;49.790;9.958;2022-11-12T03:53:30;17.53;;;8.57;;
5591;SDS011;2818;49.790;9.958;2022-11-12T03:55:57;16.63;;;8.90;;
5591;SDS011;2818;49.790;9.958;2022-11-12T03:58:23;12.00;;;8.23;;
5591;SDS011;2818;49.790;9.958;2022-11-12T04:00:51;15.40;;;8.47;;
5591;SDS011;2818;49.790;9.958;2022-11-12T04:03:18;9.80;;;8.77;;
5591;SDS011;2818;49.790;9.958;2022-11-12T04:05:45;10.07;;;8.10;;
5591;SDS011;2818;49.790;9.958;2022-11-12T04:08:30;10.77;;;8.90;;
5591;SDS011;2818;49.790;9.958;2022-11-12T04:11:08;15.10;;;9.00;;
5591;SDS011;2818;49.790;9.958;2022-11-12T04:13:41;13.07;;;8.67;;
5591;SDS011;2818;49.790;9.958;2022-11-12T04:16:14;16.80;;;8.10;;
5591;SDS011;2818;49.790;9.958;2022-11-12T04:19:02;15.17;;;8.50;;
5591;SDS011;2818;49.790;9.958;2022-11-12T04:21:52;17.43;;;8.63;;
5591;SDS011;2818;49.790;9.958;2022-11-12T04:24:41;9.23;;;8.30;;
5591;SDS011;2818;49.790;9.958;2022-11-12T04:27:30;12.03;;;9.40;;
5591;SDS011;2818;49.790;9.958;2022-11-12T04:29:58;10.17;;;9.07;;
5591;SDS011;2818;49.790;9.958;2022-11-12T04:32:46;20.40;;;9.57;;
5591;SDS011;2818;49.790;9.958;2022-11-12T04:35:20;20.77;;;8.80;;
5591;SDS011;2818;49.790;9.958;2022-11-12T04:37:48;18.50;;;9.00;;
5591;SDS011;2818;49.790;9.958;2022-11-12T04:40:16;15.23;;;9.63;;
5591;SDS011;2818;49.790;9.958;2022-11-12T04:43:02;10.20;;;9.20;;
5591;SDS011;2818;49.790;9.958;2022-11-12T04:45:50;19.07;;;9.43;;
5591;SDS011;2818;49.790;9.958;2022-11-12T04:48:19;20.13;;;9.33;;
5591;SDS011;2818;49.790;9.958;2022-11-12T04:50:47;16.10;;;8.90;;
5591;SDS011;2818;49.790;9.958;2022-11-12T04:53:19;17.30;;;9.70;;
5591;SDS011;2818;49.790;9.958;2022-11-12T04:55:50;18.27;;;8.90;;
5591;SDS011;2818;49.790;9.958;2022-11-12T04:58:18;30.37;;;9.80;;
5591;SDS011;2818;49.790;9.958;2022-11-12T05:00:45;47.20;;;9.17;;
5591;SDS011;2818;49.790;9.958;2022-11-12T05:03:13;31.87;;;9.57;;
5591;SDS011;2818;49.790;9.958;2022-11-12T05:05:39;20.70;;;8.83;;
5591;SDS011;2818;49.790;9.958;2022-11-12T05:08:06;26.63;;;9.27;;
5591;SDS011;2818;49.790;9.958;2022-11-12T05:10:33;25.97;;;9.17;;
5591;SDS011;2818;49.790;9.958;2022-11-12T05:13:00;9.37;;;8.23;;
5591;SDS011;2818;49.790;9.958;2022-11-12T05:15:27;18.43;;;8.90;;
5591;SDS011;2818;49.790;9.958;2022-11-12T05:17:54;12.60;;;9.50;;
5591;SDS011;2818;49.790;9.958;2022-11-12T05:20:21;9.17;;;8.37;;
5591;SDS011;2818;49.790;9.958;2022-11-12T05:22:48;11.07;;;8.40;;
5591;SDS011;2818;49.790;9.958;2022-11-12T05:25:31;19.23;;;9.47;;
5591;SDS011;2818;49.790;9.958;2022-11-12T05:27:59;17.33;;;8.73;;
5591;SDS011;2818;49.790;9.958;2022-11-12T05:30:26;27.80;;;8.87;;
5591;SDS011;2818;49.790;9.958;2022-11-12T05:32:53;30.77;;;9.17;;
5591;SDS011;2818;49.790;9.958;2022-11-12T05:35:20;25.53;;;9.03;;
5591;SDS011;2818;49.790;9.958;2022-11-12T05:37:46;35.40;;;9.17;;
5591;SDS011;2818;49.790;9.958;2022-11-12T05:40:13;11.70;;;8.73;;
5591;SDS011;2818;49.790;9.958;2022-11-12T05:42:40;27.77;;;9.30;;
5591;SDS011;2818;49.790;9.958;2022-11-12T05:45:07;15.60;;;9.00;;
5591;SDS011;2818;49.790;9.958;2022-11-12T05:47:34;10.80;;;8.97;;
5591;SDS011;2818;49.790;9.958;2022-11-12T05:50:01;31.77;;;9.70;;
5591;SDS011;2818;49.790;9.958;2022-11-12T05:52:29;20.93;;;9.17;;
5591;SDS011;2818;49.790;9.958;2022-11-12T05:54:55;14.77;;;9.37;;
5591;SDS011;2818;49.790;9.958;2022-11-12T05:57:22;20.37;;;9.50;;
5591;SDS011;2818;49.790;9.958;2022-11-12T05:59:51;21.13;;;9.17;;
5591;SDS011;2818;49.790;9.958;2022-11-12T06:02:18;14.93;;;9.23;;
5591;SDS011;2818;49.790;9.958;2022-11-12T06:04:45;12.53;;;8.77;;
5591;SDS011;2818;49.790;9.958;2022-11-12T06:07:12;10.20;;;8.77;;
5591;SDS011;2818;49.790;9.958;2022-11-12T06:09:39;10.23;;;9.03;;
5591;SDS011;2818;49.790;9.958;2022-11-12T06:12:06;8.63;;;7.70;;
5591;SDS011;2818;49.790;9.958;2022-11-12T06:14:33;10.93;;;8.10;;
5591;SDS011;2818;49.790;9.958;2022-11-12T06:17:00;12.83;;;8.50;;
5591;SDS011;2818;49.790;9.958;2022-11-12T06:19:27;11.60;;;8.13;;
5591;SDS011;2818;49.790;9.958;2022-11-12T06:21:54;11.93;;;8.30;;
5591;SDS011;2818;49.790;9.958;2022-11-12T06:24:21;16.17;;;12.63;;
5591;SDS011;2818;49.790;9.958;2022-11-12T06:26:48;15.43;;;9.53;;
5591;SDS011;2818;49.790;9.958;2022-11-12T06:29:14;10.93;;;9.03;;
5591;SDS011;2818;49.790;9.958;2022-11-12T06:31:41;18.57;;;9.00;;
5591;SDS011;2818;49.790;9.958;2022-11-12T06:34:08;11.43;;;9.40;;
5591;SDS011;2818;49.790;9.958;2022-11-12T06:36:37;12.83;;;8.50;;
5591;SDS011;2818;49.790;9.958;2022-11-12T06:39:04;10.20;;;9.20;;
5591;SDS011;2818;49.790;9.958;2022-11-12T06:41:31;10.30;;;8.87;;
5591;SDS011;2818;49.790;9.958;2022-11-12T06:43:58;9.20;;;8.33;;
5591;SDS011;2818;49.790;9.958;2022-11-12T06:46:25;10.00;;;9.03;;
5591;SDS011;2818;49.790;9.958;2022-11-12T06:48:52;15.07;;;9.60;;
5591;SDS011;2818;49.790;9.958;2022-11-12T06:51:19;16.50;;;9.27;;
5591;SDS011;2818;49.790;9.958;2022-11-12T06:53:46;14.10;;;9.67;;
5591;SDS011;2818;49.790;9.958;2022-11-12T06:56:14;12.30;;;9.27;;
5591;SDS011;2818;49.790;9.958;2022-11-12T06:58:41;10.60;;;9.50;;
5591;SDS011;2818;49.790;9.958;2022-11-12T07:01:12;14.07;;;9.40;;
5591;SDS011;2818;49.790;9.958;2022-11-12T07:03:41;11.60;;;9.70;;
5591;SDS011;2818;49.790;9.958;2022-11-12T07:06:10;11.37;;;10.17;;
5591;SDS011;2818;49.790;9.958;2022-11-12T07:08:38;12.13;;;9.17;;
5591;SDS011;2818;49.790;9.958;2022-11-12T07:11:06;25.33;;;10.60;;
5591;SDS011;2818;49.790;9.958;2022-11-12T07:13:34;11.73;;;10.50;;
5591;SDS011;2818;49.790;9.958;2022-11-12T07:16:02;11.70;;;10.50;;
5591;SDS011;2818;49.790;9.958;2022-11-12T07:18:31;17.70;;;10.47;;
5591;SDS011;2818;49.790;9.958;2022-11-12T07:21:00;16.63;;;10.30;;
5591;SDS011;2818;49.790;9.958;2022-11-12T07:23:34;12.97;;;10.27;;
5591;SDS011;2818;49.790;9.958;2022-11-12T07:26:11;13.83;;;9.90;;
5591;SDS011;2818;49.790;9.958;2022-11-12T07:28:40;23.87;;;10.17;;
5591;SDS011;2818;49.790;9.958;2022-11-12T07:31:09;21.23;;;11.13;;
5591;SDS011;2818;49.790;9.958;2022-11-12T07:33:37;17.33;;;9.80;;
5591;SDS011;2818;49.790;9.958;2022-11-12T07:38:36;13.43;;;8.90;;
5591;SDS011;2818;49.790;9.958;2022-11-12T07:41:14;12.33;;;9.40;;
5591;SDS011;2818;49.790;9.958;2022-11-12T07:43:43;17.30;;;9.70;;
5591;SDS011;2818;49.790;9.958;2022-11-12T07:46:16;12.03;;;9.47;;
5591;SDS011;2818;49.790;9.958;2022-11-12T07:48:45;18.60;;;9.70;;
5591;SDS011;2818;49.790;9.958;2022-11-12T07:51:16;12.70;;;9.80;;
5591;SDS011;2818;49.790;9.958;2022-11-12T07:53:48;18.47;;;8.67;;
5591;SDS011;2818;49.790;9.958;2022-11-12T07:56:23;11.13;;;9.10;;
5591;SDS011;2818;49.790;9.958;2022-11-12T07:58:51;11.13;;;9.20;;
5591;SDS011;2818;49.790;9.958;2022-11-12T08:03:58;11.17;;;9.20;;
5591;SDS011;2818;49.790;9.958;2022-11-12T08:06:27;15.80;;;9.17;;
5591;SDS011;2818;49.790;9.958;2022-11-12T08:08:55;10.43;;;8.50;;
5591;SDS011;2818;49.790;9.958;2022-11-12T08:11:23;13.80;;;8.80;;
5591;SDS011;2818;49.790;9.958;2022-11-12T08:13:50;10.23;;;9.13;;
5591;SDS011;2818;49.790;9.958;2022-11-12T08:16:17;12.70;;;8.20;;
5591;SDS011;2818;49.790;9.958;2022-11-12T08:18:45;10.17;;;8.90;;
5591;SDS011;2818;49.790;9.958;2022-11-12T08:21:13;14.40;;;9.20;;
5591;SDS011;2818;49.790;9.958;2022-11-12T08:23:41;24.87;;;8.40;;
5591;SDS011;2818;49.790;9.958;2022-11-12T08:26:10;10.23;;;9.00;;
5591;SDS011;2818;49.790;9.958;2022-11-12T08:28:38;10.87;;;9.50;;
5591;SDS011;2818;49.790;9.958;2022-11-12T08:31:10;13.00;;;10.30;;
5591;SDS011;2818;49.790;9.958;2022-11-12T08:33:39;11.20;;;9.90;;
5591;SDS011;2818;49.790;9.958;2022-11-12T08:36:08;9.83;;;8.80;;
5591;SDS011;2818;49.790;9.958;2022-11-12T08:38:37;10.07;;;9.07;;
5591;SDS011;2818;49.790;9.958;2022-11-12T08:41:05;9.90;;;9.00;;
5591;SDS011;2818;49.790;9.958;2022-11-12T08:43:33;9.30;;;8.50;;
5591;SDS011;2818;49.790;9.958;2022-11-12T08:46:01;8.90;;;8.10;;
5591;SDS011;2818;49.790;9.958;2022-11-12T08:48:31;9.53;;;8.63;;
5591;SDS011;2818;49.790;9.958;2022-11-12T08:51:00;8.90;;;8.10;;
5591;SDS011;2818;49.790;9.958;2022-11-12T08:53:27;8.97;;;8.07;;
5591;SDS011;2818;49.790;9.958;2022-11-12T08:55:55;9.50;;;8.60;;
5591;SDS011;2818;49.790;9.958;2022-11-12T08:58:22;9.43;;;8.53;;
5591;SDS011;2818;49.790;9.958;2022-11-12T09:00:51;10.43;;;9.43;;
5591;SDS011;2818;49.790;9.958;2022-11-12T09:03:19;11.20;;;8.47;;
5591;SDS011;2818;49.790;9.958;2022-11-12T09:05:47;9.33;;;8.43;;
5591;SDS011;2818;49.790;9.958;2022-11-12T09:08:17;10.50;;;8.63;;
5591;SDS011;2818;49.790;9.958;2022-11-12T09:10:45;9.57;;;8.67;;
5591;SDS011;2818;49.790;9.958;2022-11-12T09:13:12;9.57;;;8.63;;
5591;SDS011;2818;49.790;9.958;2022-11-12T09:15:39;10.00;;;9.00;;
5591;SDS011;2818;49.790;9.958;2022-11-12T09:18:09;10.33;;;9.33;;
5591;SDS011;2818;49.790;9.958;2022-11-12T09:20:38;10.70;;;9.60;;
5591;SDS011;2818;49.790;9.958;2022-11-12T09:23:13;10.53;;;9.43;;
5591;SDS011;2818;49.790;9.958;2022-11-12T09:25:41;10.77;;;9.77;;
5591;SDS011;2818;49.790;9.958;2022-11-12T09:28:09;10.60;;;9.47;;
5591;SDS011;2818;49.790;9.958;2022-11-12T09:30:42;14.07;;;9.30;;
5591;SDS011;2818;49.790;9.958;2022-11-12T09:33:12;11.00;;;9.60;;
5591;SDS011;2818;49.790;9.958;2022-11-12T09:35:44;10.40;;;9.40;;
5591;SDS011;2818;49.790;9.958;2022-11-12T09:38:12;10.70;;;9.73;;
5591;SDS011;2818;49.790;9.958;2022-11-12T09:45:49;10.90;;;9.90;;
5591;SDS011;2818;49.790;9.958;2022-11-12T09:48:39;13.77;;;9.53;;
5591;SDS011;2818;49.790;9.958;2022-11-12T09:51:26;11.57;;;10.47;;
5591;SDS011;2818;49.790;9.958;2022-11-12T09:53:57;12.17;;;10.90;;
5591;SDS011;2818;49.790;9.958;2022-11-12T09:56:27;12.33;;;10.77;;
5591;SDS011;2818;49.790;9.958;2022-11-12T09:58:55;10.93;;;9.87;;
5591;SDS011;2818;49.790;9.958;2022-11-12T10:01:23;12.30;;;11.00;;
5591;SDS011;2818;49.790;9.958;2022-11-12T10:06:48;11.63;;;10.53;;
5591;SDS011;2818;49.790;9.958;2022-11-12T10:09:47;10.53;;;9.43;;
5591;SDS011;2818;49.790;9.958;2022-11-12T10:12:53;11.60;;;10.50;;
5591;SDS011;2818;49.790;9.958;2022-11-12T10:15:36;12.60;;;9.90;;
5591;SDS011;2818;49.790;9.958;2022-11-12T10:21:18;11.73;;;10.63;;
5591;SDS011;2818;49.790;9.958;2022-11-12T10:23:55;12.10;;;10.03;;
5591;SDS011;2818;49.790;9.958;2022-11-12T10:26:24;11.10;;;10.03;;
5591;SDS011;2818;49.790;9.958;2022-11-12T10:31:36;11.17;;;10.17;;
5591;SDS011;2818;49.790;9.958;2022-11-12T10:34:13;12.83;;;10.70;;
5591;SDS011;2818;49.790;9.958;2022-11-12T10:36:47;12.47;;;11.27;;
5591;SDS011;2818;49.790;9.958;2022-11-12T10:39:54;13.60;;;11.40;;
5591;SDS011;2818;49.790;9.958;2022-11-12T10:42:14;11.40;;;10.40;;
5591;SDS011;2818;49.790;9.958;2022-11-12T10:44:43;12.43;;;11.13;;
5591;SDS011;2818;49.790;9.958;2022-11-12T10:50:09;12.90;;;11.60;;
5591;SDS011;2818;49.790;9.958;2022-11-12T10:52:37;13.50;;;11.63;;
5591;SDS011;2818;49.790;9.958;2022-11-12T10:57:40;12.93;;;11.10;;
5591;SDS011;2818;49.790;9.958;2022-11-12T11:02:50;12.90;;;11.60;;
5591;SDS011;2818;49.790;9.958;2022-11-12T11:05:29;12.80;;;11.50;;
5591;SDS011;2818;49.790;9.958;2022-11-12T11:08:00;13.13;;;11.80;;
5591;SDS011;2818;49.790;9.958;2022-11-12T11:10:30;13.53;;;12.13;;
5591;SDS011;2818;49.790;9.958;2022-11-12T11:15:34;15.53;;;12.47;;
5591;SDS011;2818;49.790;9.958;2022-11-12T11:18:01;12.63;;;11.33;;
5591;SDS011;2818;49.790;9.958;2022-11-12T11:20:34;13.57;;;11.70;;
5591;SDS011;2818;49.790;9.958;2022-11-12T11:25:54;14.80;;;11.40;;
5591;SDS011;2818;49.790;9.958;2022-11-12T11:28:38;15.20;;;12.80;;
5591;SDS011;2818;49.790;9.958;2022-11-12T11:39:59;16.43;;;12.93;;
5591;SDS011;2818;49.790;9.958;2022-11-12T11:42:50;17.77;;;14.07;;
5591;SDS011;2818;49.790;9.958;2022-11-12T11:54:14;17.67;;;14.10;;
5591;SDS011;2818;49.790;9.958;2022-11-12T11:56:53;17.20;;;14.70;;
5591;SDS011;2818;49.790;9.958;2022-11-12T12:10:24;15.07;;;13.43;;
5591;SDS011;2818;49.790;9.958;2022-11-12T12:21:52;19.93;;;14.33;;
5591;SDS011;2818;49.790;9.958;2022-11-12T12:27:13;19.23;;;15.30;;
5591;SDS011;2818;49.790;9.958;2022-11-12T12:29:51;20.07;;;15.73;;
5591;SDS011;2818;49.790;9.958;2022-11-12T12:32:24;17.47;;;15.23;;
5591;SDS011;2818;49.790;9.958;2022-11-12T12:35:05;19.37;;;16.17;;
5591;SDS011;2818;49.790;9.958;2022-11-12T12:37:56;18.37;;;16.10;;
5591;SDS011;2818;49.790;9.958;2022-11-12T12:48:18;25.60;;;17.40;;
5591;SDS011;2818;49.790;9.958;2022-11-12T12:50:54;22.53;;;16.47;;
5591;SDS011;2818;49.790;9.958;2022-11-12T12:55:57;17.90;;;16.00;;
5591;SDS011;2818;49.790;9.958;2022-11-12T12:58:33;19.27;;;16.67;;
5591;SDS011;2818;49.790;9.958;2022-11-12T13:08:51;21.50;;;17.73;;
5591;SDS011;2818;49.790;9.958;2022-11-12T13:19:44;20.23;;;16.83;;
5591;SDS011;2818;49.790;9.958;2022-11-12T13:30:06;23.10;;;18.23;;
5591;SDS011;2818;49.790;9.958;2022-11-12T13:32:40;21.93;;;17.67;;
5591;SDS011;2818;49.790;9.958;2022-11-12T13:45:46;20.47;;;17.67;;
5591;SDS011;2818;49.790;9.958;2022-11-12T13:48:22;24.60;;;19.30;;
5591;SDS011;2818;49.790;9.958;2022-11-12T13:51:03;24.47;;;18.60;;
5591;SDS011;2818;49.790;9.958;2022-11-12T13:53:38;26.80;;;19.80;;
5591;SDS011;2818;49.790;9.958;2022-11-12T13:56:05;24.70;;;19.10;;
5591;SDS011;2818;49.790;9.958;2022-11-12T13:58:32;22.97;;;18.33;;
5591;SDS011;2818;49.790;9.958;2022-11-12T14:01:01;23.80;;;19.13;;
5591;SDS011;2818;49.790;9.958;2022-11-12T14:03:31;24.27;;;19.17;;
5591;SDS011;2818;49.790;9.958;2022-11-12T14:06:18;22.40;;;19.07;;
5591;SDS011;2818;49.790;9.958;2022-11-12T14:09:12;27.83;;;19.47;;
5591;SDS011;2818;49.790;9.958;2022-11-12T14:12:02;23.73;;;18.53;;
5591;SDS011;2818;49.790;9.958;2022-11-12T14:20:18;23.60;;;19.30;;
5591;SDS011;2818;49.790;9.958;2022-11-12T14:23:14;23.70;;;18.10;;
5591;SDS011;2818;49.790;9.958;2022-11-12T14:25:51;22.70;;;18.27;;
5591;SDS011;2818;49.790;9.958;2022-11-12T14:28:32;23.20;;;18.20;;
5591;SDS011;2818;49.790;9.958;2022-11-12T14:31:02;25.07;;;18.40;;
5591;SDS011;2818;49.790;9.958;2022-11-12T14:33:30;26.83;;;19.03;;
5591;SDS011;2818;49.790;9.958;2022-11-12T14:36:01;25.63;;;19.53;;
5591;SDS011;2818;49.790;9.958;2022-11-12T14:38:36;31.33;;;23.00;;
5591;SDS011;2818;49.790;9.958;2022-11-12T14:41:18;42.83;;;26.47;;
5591;SDS011;2818;49.790;9.958;2022-11-12T14:43:50;36.53;;;24.50;;
5591;SDS011;2818;49.790;9.958;2022-11-12T14:46:38;32.00;;;22.57;;
5591;SDS011;2818;49.790;9.958;2022-11-12T14:52:03;33.47;;;23.83;;
5591;SDS011;2818;49.790;9.958;2022-11-12T14:54:32;28.70;;;22.37;;
5591;SDS011;2818;49.790;9.958;2022-11-12T14:57:30;27.70;;;20.70;;
5591;SDS011;2818;49.790;9.958;2022-11-12T14:59:58;31.97;;;22.30;;
5591;SDS011;2818;49.790;9.958;2022-11-12T15:02:26;29.33;;;21.33;;
5591;SDS011;2818;49.790;9.958;2022-11-12T15:05:16;26.40;;;20.33;;
5591;SDS011;2818;49.790;9.958;2022-11-12T15:07:53;30.03;;;21.83;;
5591;SDS011;2818;49.790;9.958;2022-11-12T15:10:42;30.17;;;21.40;;
5591;SDS011;2818;49.790;9.958;2022-11-12T15:13:28;26.97;;;19.90;;
5591;SDS011;2818;49.790;9.958;2022-11-12T15:16:04;26.90;;;19.90;;
5591;SDS011;2818;49.790;9.958;2022-11-12T15:18:33;30.97;;;20.50;;
5591;SDS011;2818;49.790;9.958;2022-11-12T15:21:24;26.40;;;20.27;;
5591;SDS011;2818;49.790;9.958;2022-11-12T15:24:00;27.03;;;20.90;;
5591;SDS011;2818;49.790;9.958;2022-11-12T15:26:35;27.43;;;20.13;;
5591;SDS011;2818;49.790;9.958;2022-11-12T15:31:47;26.03;;;20.23;;
5591;SDS011;2818;49.790;9.958;2022-11-12T15:34:28;23.97;;;19.63;;
5591;SDS011;2818;49.790;9.958;2022-11-12T15:36:55;26.83;;;20.93;;
5591;SDS011;2818;49.790;9.958;2022-11-12T15:39:24;28.97;;;21.00;;
5591;SDS011;2818;49.790;9.958;2022-11-12T15:41:59;28.63;;;21.60;;
5591;SDS011;2818;49.790;9.958;2022-11-12T15:44:38;25.50;;;21.00;;
5591;SDS011;2818;49.790;9.958;2022-11-12T15:47:04;30.53;;;21.77;;
5591;SDS011;2818;49.790;9.958;2022-11-12T15:49:48;31.53;;;22.77;;
5591;SDS011;2818;49.790;9.958;2022-11-12T15:52:19;30.00;;;21.30;;
5591;SDS011;2818;49.790;9.958;2022-11-12T15:54:46;29.77;;;22.07;;
5591;SDS011;2818;49.790;9.958;2022-11-12T15:57:24;33.80;;;21.60;;
5591;SDS011;2818;49.790;9.958;2022-11-12T16:00:00;34.90;;;21.83;;
5591;SDS011;2818;49.790;9.958;2022-11-12T16:02:33;35.80;;;21.83;;
5591;SDS011;2818;49.790;9.958;2022-11-12T16:05:00;34.93;;;23.40;;
5591;SDS011;2818;49.790;9.958;2022-11-12T16:07:27;35.40;;;23.63;;
5591;SDS011;2818;49.790;9.958;2022-11-12T16:09:54;34.97;;;23.10;;
5591;SDS011;2818;49.790;9.958;2022-11-12T16:12:21;43.00;;;25.77;;
5591;SDS011;2818;49.790;9.958;2022-11-12T16:14:48;49.00;;;25.90;;
5591;SDS011;2818;49.790;9.958;2022-11-12T16:17:15;45.07;;;25.47;;
5591;SDS011;2818;49.790;9.958;2022-11-12T16:19:43;57.87;;;25.27;;
5591;SDS011;2818;49.790;9.958;2022-11-12T16:22:10;49.43;;;24.80;;
5591;SDS011;2818;49.790;9.958;2022-11-12T16:24:40;43.27;;;25.03;;
5591;SDS011;2818;49.790;9.958;2022-11-12T16:27:12;46.60;;;25.40;;
5591;SDS011;2818;49.790;9.958;2022-11-12T16:29:40;59.23;;;25.43;;
5591;SDS011;2818;49.790;9.958;2022-11-12T16:32:10;51.03;;;27.63;;
5591;SDS011;2818;49.790;9.958;2022-11-12T16:34:39;46.70;;;25.87;;
5591;SDS011;2818;49.790;9.958;2022-11-12T16:37:08;43.90;;;25.10;;
5591;SDS011;2818;49.790;9.958;2022-11-12T16:39:37;49.40;;;28.03;;
5591;SDS011;2818;49.790;9.958;2022-11-12T16:42:04;47.13;;;26.23;;
5591;SDS011;2818;49.790;9.958;2022-11-12T16:44:34;49.13;;;27.70;;
5591;SDS011;2818;49.790;9.958;2022-11-12T16:47:01;110.57;;;30.37;;
5591;SDS011;2818;49.790;9.958;2022-11-12T16:49:29;51.17;;;28.43;;
5591;SDS011;2818;49.790;9.958;2022-11-12T16:52:03;60.23;;;27.70;;
5591;SDS011;2818;49.790;9.958;2022-11-12T16:54:30;74.07;;;30.07;;
5591;SDS011;2818;49.790;9.958;2022-11-12T16:56:57;85.63;;;30.20;;
5591;SDS011;2818;49.790;9.958;2022-11-12T16:59:24;75.10;;;28.10;;
5591;SDS011;2818;49.790;9.958;2022-11-12T17:01:51;244.23;;;30.53;;
5591;SDS011;2818;49.790;9.958;2022-11-12T17:04:17;352.40;;;32.50;;
5591;SDS011;2818;49.790;9.958;2022-11-12T17:06:44;183.80;;;30.47;;
5591;SDS011;2818;49.790;9.958;2022-11-12T17:09:11;149.77;;;29.33;;
5591;SDS011;2818;49.790;9.958;2022-11-12T17:11:38;136.23;;;29.80;;
5591;SDS011;2818;49.790;9.958;2022-11-12T17:14:05;67.43;;;30.13;;
5591;SDS011;2818;49.790;9.958;2022-11-12T17:16:32;183.87;;;31.50;;
5591;SDS011;2818;49.790;9.958;2022-11-12T17:19:00;380.87;;;36.33;;
5591;SDS011;2818;49.790;9.958;2022-11-12T17:21:27;287.23;;;33.37;;
5591;SDS011;2818;49.790;9.958;2022-11-12T17:23:54;403.40;;;34.63;;
5591;SDS011;2818;49.790;9.958;2022-11-12T17:26:23;240.23;;;31.77;;